Sharon, North Dakota
Current Conditions -  °F | °C
As of 9:08 PM on Tuesday 25 Nov 2014 (Local Time) from KRDR Reporting Station
Light Snow Light Snow  
Wind Chill: -1°   Ceiling: 1100
Heat Index: 14°   Visibility: 4mi
Dew Point: 10°   Wind: 15mph
Humidity: 86%   Direction: 20°NNE
Pressure: 30.07"   Gusts: 21mph
Location:  47.6°N, 97.89°W
Report Text: KRDR 260308Z AUTO 02013G18KT 4SM R35/4000FT -SN BR SCT006 OVC011 M10/M12 A3007 RMK AO2 CIG 005V012
Loading
Personal Weather Stations






























Interactive Weather Map New forecast layout! Learn more

10-Day Weather Forecast

Advertisements
Track Severe Weather on mobile